createdAt,value
2022-12-29T00:02:20.813Z,98478.50
2022-12-29T00:05:25.569Z,98484.81
2022-12-29T00:08:40.417Z,98479.59
2022-12-29T00:11:46.065Z,98482.06
2022-12-29T00:15:18.453Z,98469.78
2022-12-29T00:18:21.868Z,98462.16
2022-12-29T00:21:44.471Z,98473.63
2022-12-29T00:25:05.454Z,98463.25
2022-12-29T00:28:30.647Z,98464.59
2022-12-29T00:31:51.794Z,98462.19
2022-12-29T00:35:10.662Z,98455.03
2022-12-29T00:38:33.373Z,98437.81
2022-12-29T00:41:54.403Z,98443.06
2022-12-29T00:44:59.418Z,98423.59
2022-12-29T00:48:02.899Z,98449.31
2022-12-29T00:51:05.891Z,98431.53
2022-12-29T00:54:09.572Z,98436.47
2022-12-29T00:57:14.205Z,98408.81
2022-12-29T01:00:19.234Z,98431.25
2022-12-29T01:03:22.651Z,98432.63
2022-12-29T01:06:26.331Z,98430.16
2022-12-29T01:09:47.226Z,98431.00
2022-12-29T01:13:42.177Z,98413.94
2022-12-29T01:16:48.186Z,98421.19
2022-12-29T01:19:53.368Z,98414.56
2022-12-29T01:22:56.893Z,98399.28
2022-12-29T01:26:11.472Z,98411.28
2022-12-29T01:29:15.462Z,98412.44
2022-12-29T01:32:20.498Z,98406.38
2022-12-29T01:35:24.137Z,98396.84
2022-12-29T01:38:27.755Z,98398.75
2022-12-29T01:41:31.200Z,98416.00
2022-12-29T01:44:52.924Z,98406.09
2022-12-29T01:48:03.844Z,98396.03
2022-12-29T01:51:08.930Z,98400.44
2022-12-29T01:54:19.353Z,98385.66
2022-12-29T01:57:28.507Z,98390.31
2022-12-29T02:00:32.065Z,98383.19
2022-12-29T02:03:39.243Z,98398.50
2022-12-29T02:06:50.711Z,98389.50
2022-12-29T02:09:57.925Z,98374.47
2022-12-29T02:13:01.626Z,98374.75
2022-12-29T02:16:23.140Z,98384.03
2022-12-29T02:20:22.211Z,98377.41
2022-12-29T02:24:06.282Z,98374.75
2022-12-29T02:27:38.729Z,98378.00
2022-12-29T02:31:09.415Z,98368.72
2022-12-29T02:34:28.726Z,98362.19
2022-12-29T02:37:45.836Z,98349.03
2022-12-29T02:40:55.934Z,98346.88
2022-12-29T02:44:14.275Z,98343.03
2022-12-29T02:47:30.182Z,98336.47
2022-12-29T02:50:39.575Z,98331.06
2022-12-29T02:54:01.348Z,98337.63
2022-12-29T02:57:05.496Z,98337.09
2022-12-29T03:00:15.996Z,98321.22
2022-12-29T03:03:38.529Z,98332.09
2022-12-29T03:07:00.135Z,98326.13
2022-12-29T03:10:16.675Z,98319.59
2022-12-29T03:13:52.015Z,98314.66
2022-12-29T03:17:05.588Z,98303.47
2022-12-29T03:20:20.252Z,98318.47
2022-12-29T03:23:30.430Z,98319.06
2022-12-29T03:26:34.533Z,98322.59
2022-12-29T03:29:44.890Z,98321.22
2022-12-29T03:32:54.251Z,98319.59
2022-12-29T03:36:07.937Z,98313.00
2022-12-29T03:39:14.222Z,98287.06
2022-12-29T03:42:24.132Z,98313.31
2022-12-29T03:45:27.932Z,98324.81
2022-12-29T03:48:31.633Z,98311.94
2022-12-29T03:51:36.511Z,98287.88
2022-12-29T03:54:42.610Z,98305.94
2022-12-29T03:57:46.386Z,98305.94
2022-12-29T04:00:54.742Z,98306.75
2022-12-29T04:03:58.162Z,98313.06
2022-12-29T04:07:03.402Z,98313.59
2022-12-29T04:10:08.547Z,98302.13
2022-12-29T04:13:12.727Z,98282.16
2022-12-29T04:16:17.065Z,98290.06
2022-12-29T04:19:20.683Z,98282.16
2022-12-29T04:22:27.065Z,98280.78
2022-12-29T04:25:31.045Z,98261.09
2022-12-29T04:28:35.113Z,98272.84
2022-12-29T04:32:08.184Z,98275.34
2022-12-29T04:35:15.924Z,98277.50
2022-12-29T04:38:20.990Z,98278.03
2022-12-29T04:41:25.447Z,98274.78
2022-12-29T04:44:29.953Z,98284.59
2022-12-29T04:47:52.222Z,98275.88
2022-12-29T04:51:14.349Z,98252.38
2022-12-29T04:54:20.542Z,98279.94
2022-12-29T04:57:32.000Z,98277.50
2022-12-29T05:00:37.668Z,98276.69
2022-12-29T05:03:41.261Z,98273.94
2022-12-29T05:06:45.546Z,98275.88
2022-12-29T05:09:50.998Z,98270.41
2022-12-29T05:12:54.690Z,98267.94
2022-12-29T05:15:58.290Z,98270.16
2022-12-29T05:19:07.263Z,98265.47
2022-12-29T05:22:11.584Z,98252.94
2022-12-29T05:25:17.399Z,98253.75
2022-12-29T05:28:43.761Z,98263.66
2022-12-29T05:31:54.854Z,98237.13
2022-12-29T05:34:58.952Z,98235.22
2022-12-29T05:38:02.701Z,98249.69
2022-12-29T05:41:07.835Z,98240.41
2022-12-29T05:44:37.373Z,98246.44
2022-12-29T05:48:02.073Z,98237.69
2022-12-29T05:52:40.315Z,98236.47
2022-12-29T05:56:02.819Z,98251.19
2022-12-29T05:59:08.091Z,98228.97
2022-12-29T06:02:12.207Z,98255.22
2022-12-29T06:05:16.213Z,98261.78
2022-12-29T06:08:20.416Z,98242.63
2022-12-29T06:11:25.454Z,98250.84
2022-12-29T06:14:34.176Z,98262.59
2022-12-29T06:17:37.965Z,98261.25
2022-12-29T06:20:41.813Z,98256.31
2022-12-29T06:23:45.570Z,98256.31
2022-12-29T06:26:49.946Z,98241.53
2022-12-29T06:29:55.582Z,98240.97
2022-12-29T06:33:00.579Z,98230.03
2022-12-29T06:36:04.452Z,98217.72
2022-12-29T06:39:08.459Z,98220.44
2022-12-29T06:42:12.579Z,98224.81
2022-12-29T06:45:23.658Z,98198.72
2022-12-29T06:48:27.505Z,98209.91
2022-12-29T06:51:31.317Z,98216.13
2022-12-29T06:54:35.410Z,98207.06
2022-12-29T06:57:39.114Z,98204.56
2022-12-29T07:00:44.052Z,98212.69
2022-12-29T07:03:48.202Z,98193.25
2022-12-29T07:06:51.499Z,98217.31
2022-12-29T07:09:55.128Z,98232.34
2022-12-29T07:12:58.442Z,98230.13
2022-12-29T07:16:08.507Z,98244.25
2022-12-29T07:19:12.180Z,98242.91
2022-12-29T07:22:17.105Z,98249.72
2022-12-29T07:25:20.639Z,98237.38
2022-12-29T07:28:24.318Z,98249.16
2022-12-29T07:31:29.368Z,98252.94
2022-12-29T07:34:34.752Z,98255.69
2022-12-29T07:37:38.187Z,98254.53
2022-12-29T07:40:41.729Z,98253.44
2022-12-29T07:43:48.431Z,98263.28
2022-12-29T07:47:11.876Z,98251.22
2022-12-29T07:50:15.481Z,98245.75
2022-12-29T07:53:19.114Z,98246.00
2022-12-29T07:56:22.689Z,98236.69
2022-12-29T07:59:27.551Z,98224.63
2022-12-29T08:02:32.249Z,98238.53
2022-12-29T08:05:37.032Z,98220.50
2022-12-29T08:08:40.354Z,98217.47
2022-12-29T08:11:44.535Z,98219.88
2022-12-29T08:14:47.946Z,98224.25
2022-12-29T08:17:53.032Z,98233.50
2022-12-29T08:20:56.274Z,98220.91
2022-12-29T08:24:00.149Z,98242.53
2022-12-29T08:27:13.175Z,98242.25
2022-12-29T08:30:21.421Z,98249.34
2022-12-29T08:33:26.789Z,98240.22
2022-12-29T08:36:31.076Z,98233.94
2022-12-29T08:39:34.814Z,98238.00
2022-12-29T08:42:38.337Z,98263.19
2022-12-29T08:45:41.733Z,98254.38
2022-12-29T08:48:46.994Z,98265.03
2022-12-29T08:51:50.429Z,98261.50
2022-12-29T08:54:54.205Z,98254.91
2022-12-29T08:57:58.318Z,98276.53
2022-12-29T09:01:02.079Z,98250.44
2022-12-29T09:04:15.955Z,98261.63
2022-12-29T09:07:20.527Z,98261.94
2022-12-29T09:10:23.868Z,98244.91
2022-12-29T09:13:27.652Z,98228.19
2022-12-29T09:16:30.946Z,98254.19
2022-12-29T09:19:36.452Z,98245.38
2022-12-29T09:22:39.801Z,98237.16
2022-12-29T09:25:44.430Z,98239.56
2022-12-29T09:28:48.140Z,98243.06
2022-12-29T09:31:52.297Z,98233.69
2022-12-29T09:34:57.406Z,98224.56
2022-12-29T09:38:01.298Z,98226.72
2022-12-29T09:41:16.751Z,98237.22
2022-12-29T09:46:27.642Z,98233.06
2022-12-29T09:49:43.371Z,98238.16
2022-12-29T09:52:57.165Z,98234.44
2022-12-29T09:56:04.569Z,98240.13
2022-12-29T09:59:19.436Z,98237.81
2022-12-29T10:02:36.053Z,98241.28
2022-12-29T10:05:52.221Z,98223.41
2022-12-29T10:09:06.989Z,98236.75
2022-12-29T10:12:29.271Z,98223.44
2022-12-29T10:15:51.862Z,98211.34
2022-12-29T10:19:38.299Z,98202.53
2022-12-29T10:23:08.961Z,98226.69
2022-12-29T10:26:19.317Z,98203.72
2022-12-29T10:29:34.713Z,98213.28
2022-12-29T10:32:46.411Z,98201.72
2022-12-29T10:35:53.102Z,98210.75
2022-12-29T10:39:12.617Z,98195.41
2022-12-29T10:42:27.211Z,98206.78
2022-12-29T10:45:33.598Z,98201.91
2022-12-29T10:48:38.241Z,98209.63
2022-12-29T10:51:49.236Z,98197.25
2022-12-29T10:55:01.146Z,98200.28
2022-12-29T10:58:08.502Z,98197.84
2022-12-29T11:01:15.011Z,98194.59
2022-12-29T11:04:42.835Z,98187.91
2022-12-29T11:07:50.217Z,98196.81
2022-12-29T11:11:02.730Z,98181.09
2022-12-29T11:14:15.663Z,98178.66
2022-12-29T11:17:19.661Z,98192.94
2022-12-29T11:20:34.538Z,98170.50
2022-12-29T11:23:41.416Z,98171.44
2022-12-29T11:26:47.237Z,98175.59
2022-12-29T11:29:52.986Z,98185.75
2022-12-29T11:32:59.058Z,98184.03
2022-12-29T11:36:08.655Z,98162.00
2022-12-29T11:39:31.924Z,98153.06
2022-12-29T11:42:40.607Z,98164.94
2022-12-29T11:45:49.153Z,98155.59
2022-12-29T11:48:52.846Z,98168.00
2022-12-29T11:51:58.353Z,98189.13
2022-12-29T11:55:07.296Z,98178.44
2022-12-29T11:58:18.308Z,98175.69
2022-12-29T12:01:29.238Z,98177.53
2022-12-29T12:04:39.384Z,98152.41
2022-12-29T12:07:46.523Z,98174.47
2022-12-29T12:11:00.999Z,98158.03
2022-12-29T12:14:16.327Z,98155.97
2022-12-29T12:17:49.912Z,98146.44
2022-12-29T12:21:02.734Z,98148.84
2022-12-29T12:24:41.502Z,98152.03
2022-12-29T12:27:55.547Z,98131.19
2022-12-29T12:31:06.113Z,98151.28
2022-12-29T12:34:20.707Z,98158.63
2022-12-29T12:37:51.219Z,98145.44
2022-12-29T12:41:08.914Z,98144.63
2022-12-29T12:44:29.905Z,98151.13
2022-12-29T12:47:59.244Z,98132.63
2022-12-29T12:51:17.156Z,98160.16
2022-12-29T12:54:46.964Z,98161.06
2022-12-29T12:58:06.470Z,98140.16
2022-12-29T13:01:33.448Z,98165.75
2022-12-29T13:05:07.172Z,98176.25
2022-12-29T13:08:41.081Z,98156.31
2022-12-29T13:12:09.201Z,98168.22
2022-12-29T13:15:38.097Z,98140.88
2022-12-29T13:19:01.234Z,98155.19
2022-12-29T13:22:14.657Z,98139.94
2022-12-29T13:25:33.481Z,98142.44
2022-12-29T13:28:52.152Z,98138.28
2022-12-29T13:32:16.286Z,98119.72
2022-12-29T13:35:43.619Z,98143.53
2022-12-29T13:38:53.658Z,98152.88
2022-12-29T13:41:59.521Z,98141.91
2022-12-29T13:45:08.335Z,98162.44
2022-12-29T13:48:23.685Z,98152.47
2022-12-29T13:51:30.497Z,98143.22
2022-12-29T13:54:46.019Z,98145.81
2022-12-29T14:01:09.876Z,98146.97
2022-12-29T14:04:16.802Z,98156.94
2022-12-29T14:07:21.853Z,98156.34
2022-12-29T14:10:36.216Z,98146.38
2022-12-29T14:13:43.516Z,98157.16
2022-12-29T14:16:47.632Z,98147.59
2022-12-29T14:19:56.155Z,98149.63
2022-12-29T14:23:27.602Z,98148.00
2022-12-29T14:26:38.249Z,98155.91
2022-12-29T14:29:46.820Z,98158.97
2022-12-29T14:33:15.641Z,98149.19
2022-12-29T14:36:27.815Z,98157.34
2022-12-29T14:39:39.250Z,98167.72
2022-12-29T14:42:46.803Z,98164.97
2022-12-29T14:46:00.016Z,98155.81
2022-12-29T14:49:04.761Z,98153.69
2022-12-29T14:52:17.339Z,98150.50
2022-12-29T14:55:41.745Z,98169.88
2022-12-29T14:58:54.539Z,98154.34
2022-12-29T15:01:59.317Z,98151.38
2022-12-29T15:05:05.134Z,98156.56
2022-12-29T15:08:09.707Z,98156.88
2022-12-29T15:11:20.157Z,98159.63
2022-12-29T15:14:34.015Z,98158.63
2022-12-29T15:17:39.562Z,98162.72
2022-12-29T15:20:44.887Z,98169.03
2022-12-29T15:23:48.951Z,98152.88
2022-12-29T15:26:56.531Z,98164.06
2022-12-29T15:30:03.625Z,98157.25
2022-12-29T15:33:20.839Z,98157.88
2022-12-29T15:36:27.124Z,98160.88
2022-12-29T15:39:33.173Z,98156.50
2022-12-29T15:44:00.585Z,98174.19
2022-12-29T15:47:13.795Z,98155.66
2022-12-29T15:50:28.599Z,98164.38
2022-12-29T15:53:35.091Z,98176.06
2022-12-29T15:56:38.743Z,98175.25
2022-12-29T15:59:49.312Z,98170.97
2022-12-29T16:02:53.341Z,98176.97
2022-12-29T16:06:12.447Z,98167.66
2022-12-29T16:09:19.962Z,98160.84
2022-12-29T16:12:28.234Z,98171.38
2022-12-29T16:15:33.195Z,98162.97
2022-12-29T16:18:40.309Z,98160.97
2022-12-29T16:21:45.409Z,98169.69
2022-12-29T16:24:49.128Z,98174.06
2022-12-29T16:27:54.554Z,98160.97
2022-12-29T16:31:06.521Z,98167.50
2022-12-29T16:34:15.246Z,98154.09
2022-12-29T16:37:32.843Z,98162.53
2022-12-29T16:40:51.067Z,98155.41
2022-12-29T16:44:14.794Z,98162.22
2022-12-29T16:47:23.294Z,98173.22
2022-12-29T16:50:29.968Z,98177.59
2022-12-29T16:53:38.745Z,98185.19
2022-12-29T16:56:47.131Z,98163.84
2022-12-29T16:59:56.275Z,98183.59
2022-12-29T17:03:04.132Z,98185.72
2022-12-29T17:06:16.091Z,98184.25
2022-12-29T17:09:23.025Z,98173.72
2022-12-29T17:12:30.911Z,98200.94
2022-12-29T17:15:35.705Z,98198.84
2022-12-29T17:18:41.233Z,98201.75
2022-12-29T17:21:45.087Z,98202.41
2022-12-29T17:24:49.041Z,98208.09
2022-12-29T17:27:58.039Z,98214.91
2022-12-29T17:31:06.906Z,98209.06
2022-12-29T17:34:14.671Z,98217.81
2022-12-29T17:37:34.730Z,98215.56
2022-12-29T17:40:38.453Z,98212.47
2022-12-29T17:43:42.046Z,98206.00
2022-12-29T17:46:46.053Z,98214.91
2022-12-29T17:49:51.201Z,98217.84
2022-12-29T17:53:01.204Z,98209.56
2022-12-29T17:56:06.301Z,98203.25
2022-12-29T17:59:14.782Z,98210.22
2022-12-29T18:02:31.705Z,98209.75
2022-12-29T18:05:37.154Z,98194.34
2022-12-29T18:08:43.925Z,98208.94
2022-12-29T18:11:47.546Z,98221.91
2022-12-29T18:14:53.558Z,98211.34
2022-12-29T18:18:03.202Z,98218.66
2022-12-29T18:21:08.160Z,98212.69
2022-12-29T18:24:16.026Z,98211.38
2022-12-29T18:27:22.200Z,98218.69
2022-12-29T18:30:25.780Z,98216.44
2022-12-29T18:33:30.843Z,98220.13
2022-12-29T18:36:39.403Z,98204.09
2022-12-29T18:39:43.156Z,98214.94
2022-12-29T18:42:49.880Z,98213.31
2022-12-29T18:45:53.194Z,98210.09
2022-12-29T18:48:59.742Z,98214.00
2022-12-29T18:52:04.939Z,98194.19
2022-12-29T18:55:15.897Z,98211.38
2022-12-29T18:58:19.825Z,98204.09
2022-12-29T19:01:31.113Z,98200.19
2022-12-29T19:04:34.633Z,98208.94
2022-12-29T19:07:39.543Z,98206.38
2022-12-29T19:10:44.728Z,98191.75
2022-12-29T19:13:49.111Z,98202.31
2022-12-29T19:16:52.642Z,98197.94
2022-12-29T19:19:56.353Z,98204.25
2022-12-29T19:23:05.089Z,98203.75
2022-12-29T19:26:17.599Z,98207.50
2022-12-29T19:29:20.939Z,98204.88
2022-12-29T19:32:24.426Z,98213.63
2022-12-29T19:35:29.574Z,98214.94
2022-12-29T19:38:34.473Z,98210.25
2022-12-29T19:41:38.426Z,98205.84
2022-12-29T19:44:42.314Z,98212.50
2022-12-29T19:47:46.018Z,98213.81
2022-12-29T19:50:50.074Z,98214.13
2022-12-29T19:53:55.893Z,98217.88
2022-12-29T19:56:59.509Z,98213.00
2022-12-29T20:00:02.835Z,98227.28
2022-12-29T20:03:15.463Z,98220.63
2022-12-29T20:06:19.468Z,98216.09
2022-12-29T20:09:24.508Z,98222.22
2022-12-29T20:12:29.428Z,98219.47
2022-12-29T20:15:33.167Z,98216.38
2022-12-29T20:18:37.235Z,98194.31
2022-12-29T20:21:41.224Z,98204.38
2022-12-29T20:24:50.210Z,98221.75
2022-12-29T20:27:54.668Z,98210.91
2022-12-29T20:31:01.858Z,98210.91
2022-12-29T20:34:07.770Z,98210.25
2022-12-29T20:37:12.315Z,98197.25
2022-12-29T20:40:17.861Z,98208.13
2022-12-29T20:43:21.270Z,98213.78
2022-12-29T20:46:32.825Z,98203.91
2022-12-29T20:49:38.521Z,98214.41
2022-12-29T20:52:42.249Z,98213.59
2022-12-29T20:55:48.123Z,98208.91
2022-12-29T20:59:25.899Z,98214.25
2022-12-29T21:02:21.355Z,98216.50
2022-12-29T21:05:25.907Z,98210.81
2022-12-29T21:08:33.699Z,98211.66
2022-12-29T21:11:38.811Z,98208.41
2022-12-29T21:14:45.628Z,98217.50
2022-12-29T21:17:50.381Z,98209.25
2022-12-29T21:20:58.125Z,98218.66
2022-12-29T21:24:05.813Z,98220.63
2022-12-29T21:27:10.760Z,98221.91
2022-12-29T21:30:15.158Z,98227.75
2022-12-29T21:33:19.912Z,98228.41
2022-12-29T21:36:24.290Z,98222.53
2022-12-29T21:39:28.038Z,98245.53
2022-12-29T21:42:33.158Z,98248.09
2022-12-29T21:45:36.726Z,98246.41
2022-12-29T21:48:40.387Z,98248.00
2022-12-29T21:52:00.422Z,98249.53
2022-12-29T21:55:05.148Z,98237.44
2022-12-29T21:58:27.396Z,98252.59
2022-12-29T22:01:51.999Z,98243.56
2022-12-29T22:05:12.775Z,98247.91
2022-12-29T22:08:34.066Z,98253.78
2022-12-29T22:11:54.981Z,98253.00
2022-12-29T22:14:59.866Z,98243.38
2022-12-29T22:18:03.702Z,98248.59
2022-12-29T22:21:09.612Z,98243.31
2022-12-29T22:24:12.986Z,98244.63
2022-12-29T22:27:16.793Z,98256.13
2022-12-29T22:30:21.808Z,98257.34
2022-12-29T22:33:25.417Z,98248.00
2022-12-29T22:36:30.478Z,98256.94
2022-12-29T22:39:33.939Z,98240.38
2022-12-29T22:42:37.202Z,98243.81
2022-12-29T22:45:42.410Z,98243.13
2022-12-29T22:48:46.262Z,98259.44
2022-12-29T22:51:49.843Z,98254.03
2022-12-29T22:54:53.723Z,98245.09
2022-12-29T22:57:59.461Z,98244.38
2022-12-29T23:01:05.498Z,98243.34
2022-12-29T23:04:55.635Z,98241.50
2022-12-29T23:07:34.740Z,98235.00
2022-12-29T23:10:38.226Z,98244.34
2022-12-29T23:13:44.973Z,98247.38
2022-12-29T23:16:52.884Z,98239.44
2022-12-29T23:19:56.195Z,98249.38
2022-12-29T23:22:59.965Z,98252.41
2022-12-29T23:26:03.313Z,98254.66
2022-12-29T23:29:10.212Z,98263.97
2022-12-29T23:32:14.952Z,98253.63
2022-12-29T23:35:18.511Z,98259.72
2022-12-29T23:38:21.828Z,98254.53
2022-12-29T23:41:26.654Z,98252.59
2022-12-29T23:44:30.174Z,98258.66
2022-12-29T23:47:35.335Z,98250.44
2022-12-29T23:50:41.258Z,98249.63
2022-12-29T23:53:46.717Z,98242.00
2022-12-29T23:56:49.912Z,98253.28
2022-12-29T23:59:53.406Z,98243.44
